Slighs, South Carolina
Current Conditions -  °F | °C
As of 4:35 PM on Saturday 22 Nov 2014 (Local Time) from KEOE Reporting Station
Clear Clear  
Wind Chill: 55°   Ceiling: Unl
Heat Index: 55°   Visibility: 10mi
Dew Point: 23°   Wind: 3mph
Humidity: 28%   Direction: 60°ENE
Pressure: 30.37"   Gusts: NA
Location:  34.1808°N, 81.5344°W
Report Text: KEOE 222135Z AUTO 06003KT 10SM CLR 13/M05 A3037 RMK AO2
Loading
Personal Weather Stations






























Interactive Weather Map New forecast layout! Learn more

10-Day Weather Forecast

Advertisements
Track Severe Weather on mobile